createdAt,value
2018-05-18T00:00:17.611Z,15.10
2018-05-18T00:02:45.927Z,15.50
2018-05-18T00:05:13.463Z,15.55
2018-05-18T00:07:41.726Z,16.50
2018-05-18T00:10:09.255Z,16.70
2018-05-18T00:12:36.770Z,15.43
2018-05-18T00:15:04.305Z,15.05
2018-05-18T00:17:32.580Z,15.85
2018-05-18T00:20:00.089Z,16.50
2018-05-18T00:22:27.622Z,16.17
2018-05-18T00:24:55.138Z,16.30
2018-05-18T00:27:22.679Z,15.27
2018-05-18T00:29:50.407Z,17.33
2018-05-18T00:32:17.913Z,16.50
2018-05-18T00:34:45.437Z,13.70
2018-05-18T00:37:12.937Z,14.45
2018-05-18T00:39:41.461Z,15.43
2018-05-18T00:42:09.751Z,15.02
2018-05-18T00:44:37.278Z,13.93
2018-05-18T00:47:04.795Z,12.70
2018-05-18T00:49:35.677Z,12.88
2018-05-18T00:52:03.197Z,11.48
2018-05-18T00:54:30.714Z,11.95
2018-05-18T00:56:59.017Z,11.20
2018-05-18T00:59:26.529Z,10.38
2018-05-18T01:01:54.054Z,10.90
2018-05-18T01:04:21.578Z,12.25
2018-05-18T01:06:49.102Z,9.50
2018-05-18T01:09:16.634Z,10.70
2018-05-18T01:11:44.133Z,9.52
2018-05-18T01:14:11.662Z,10.05
2018-05-18T01:16:39.182Z,10.32
2018-05-18T01:19:06.694Z,9.90
2018-05-18T01:21:34.231Z,9.90
2018-05-18T01:24:01.743Z,10.47
2018-05-18T01:26:30.038Z,9.50
2018-05-18T01:28:57.538Z,9.63
2018-05-18T01:31:25.063Z,9.37
2018-05-18T01:33:52.574Z,9.00
2018-05-18T01:36:20.085Z,9.50
2018-05-18T01:38:47.606Z,10.07
2018-05-18T01:41:15.122Z,9.68
2018-05-18T01:43:42.656Z,9.05
2018-05-18T01:46:10.163Z,7.97
2018-05-18T01:48:37.669Z,8.65
2018-05-18T01:51:05.193Z,9.02
2018-05-18T01:53:32.700Z,9.15
2018-05-18T01:56:00.230Z,9.93
2018-05-18T01:58:28.510Z,8.60
2018-05-18T02:00:56.800Z,7.87
2018-05-18T02:03:25.078Z,8.38
2018-05-18T02:05:53.366Z,8.60
2018-05-18T02:08:20.882Z,8.70
2018-05-18T02:10:48.397Z,8.70
2018-05-18T02:13:15.925Z,8.35
2018-05-18T02:15:44.201Z,10.15
2018-05-18T02:18:12.505Z,8.23
2018-05-18T02:20:40.019Z,8.35
2018-05-18T02:23:07.558Z,9.90
2018-05-18T02:25:35.064Z,9.35
2018-05-18T02:28:03.350Z,9.43
2018-05-18T02:30:31.630Z,8.60
2018-05-18T02:32:59.130Z,8.40
2018-05-18T02:35:26.663Z,9.57
2018-05-18T02:37:54.158Z,9.30
2018-05-18T02:40:21.683Z,9.20
2018-05-18T02:42:49.177Z,8.30
2018-05-18T02:45:16.712Z,9.30
2018-05-18T02:47:44.216Z,8.93
2018-05-18T02:50:11.722Z,8.48
2018-05-18T02:52:39.256Z,9.02
2018-05-18T02:55:07.531Z,9.52
2018-05-18T02:57:35.832Z,8.50
2018-05-18T03:00:03.367Z,8.30
2018-05-18T03:02:31.655Z,8.75
2018-05-18T03:05:01.251Z,9.02
2018-05-18T03:07:30.244Z,9.30
2018-05-18T03:09:59.320Z,8.88
2018-05-18T03:12:26.828Z,9.85
2018-05-18T03:14:54.357Z,9.50
2018-05-18T03:17:21.856Z,8.25
2018-05-18T03:19:49.377Z,9.35
2018-05-18T03:22:17.675Z,9.35
2018-05-18T03:24:45.201Z,9.77
2018-05-18T03:27:12.704Z,9.75
2018-05-18T03:29:41.134Z,9.32
2018-05-18T03:32:08.675Z,8.77
2018-05-18T03:34:36.174Z,9.13
2018-05-18T03:37:04.462Z,9.55
2018-05-18T03:39:32.730Z,9.70
2018-05-18T03:42:01.011Z,9.35
2018-05-18T03:44:29.273Z,9.48
2018-05-18T03:46:56.793Z,10.57
2018-05-18T03:49:24.282Z,9.60
2018-05-18T03:51:51.781Z,11.23
2018-05-18T03:54:19.305Z,10.05
2018-05-18T03:56:47.607Z,10.18
2018-05-18T03:59:15.891Z,9.73
2018-05-18T04:01:55.963Z,9.93
2018-05-18T04:04:35.313Z,9.48
2018-05-18T04:10:09.169Z,9.60
2018-05-18T04:12:36.837Z,11.20
2018-05-18T04:15:04.441Z,9.48
2018-05-18T04:17:32.093Z,9.88
2018-05-18T04:19:59.751Z,10.63
2018-05-18T04:22:27.378Z,11.38
2018-05-18T04:24:54.995Z,9.43
2018-05-18T04:27:22.642Z,10.32
2018-05-18T04:29:50.305Z,8.35
2018-05-18T04:32:18.028Z,8.43
2018-05-18T04:34:45.650Z,9.10
2018-05-18T04:37:13.255Z,8.10
2018-05-18T04:39:44.169Z,8.50
2018-05-18T04:42:11.796Z,8.50
2018-05-18T04:44:39.412Z,9.17
2018-05-18T04:47:06.971Z,7.67
2018-05-18T04:49:35.286Z,9.17
2018-05-18T04:52:02.834Z,9.23
2018-05-18T04:54:30.390Z,9.00
2018-05-18T04:56:57.904Z,8.00
2018-05-18T04:59:25.491Z,9.03
2018-05-18T05:01:53.783Z,9.30
2018-05-18T05:04:21.306Z,8.77
2018-05-18T05:06:48.818Z,8.87
2018-05-18T05:09:16.309Z,8.93
2018-05-18T05:11:43.834Z,9.07
2018-05-18T05:14:12.111Z,8.80
2018-05-18T05:16:39.646Z,8.77
2018-05-18T05:19:07.167Z,9.23
2018-05-18T05:21:34.685Z,9.00
2018-05-18T05:24:02.199Z,9.07
2018-05-18T05:26:29.706Z,8.43
2018-05-18T05:28:57.284Z,8.37
2018-05-18T05:31:24.870Z,7.80
2018-05-18T05:33:52.498Z,8.40
2018-05-18T05:36:20.117Z,9.93
2018-05-18T05:38:47.718Z,8.80
2018-05-18T05:41:15.251Z,9.30
2018-05-18T05:43:43.531Z,8.40
2018-05-18T05:46:11.099Z,8.07
2018-05-18T05:48:38.647Z,8.17
2018-05-18T05:51:06.255Z,8.73
2018-05-18T05:53:33.818Z,9.27
2018-05-18T05:56:01.415Z,8.50
2018-05-18T05:58:29.006Z,8.23
2018-05-18T06:00:57.268Z,7.90
2018-05-18T06:03:25.587Z,9.40
2018-05-18T06:05:53.121Z,8.73
2018-05-18T06:08:20.651Z,8.80
2018-05-18T06:10:48.316Z,8.90
2018-05-18T06:13:15.922Z,8.13
2018-05-18T06:15:43.434Z,9.03
2018-05-18T06:18:11.743Z,8.80
2018-05-18T06:20:40.188Z,8.53
2018-05-18T06:23:08.468Z,9.40
2018-05-18T06:25:36.073Z,9.80
2018-05-18T06:28:04.431Z,8.93
2018-05-18T06:30:32.074Z,8.50
2018-05-18T06:32:59.890Z,9.77
2018-05-18T06:35:27.428Z,10.00
2018-05-18T06:37:55.165Z,10.30
2018-05-18T06:40:22.703Z,10.20
2018-05-18T06:42:50.599Z,9.30
2018-05-18T06:45:18.958Z,10.13
2018-05-18T06:47:46.480Z,10.40
2018-05-18T06:50:14.774Z,10.83
2018-05-18T06:52:43.048Z,10.50
2018-05-18T06:55:10.811Z,10.10
2018-05-18T06:57:38.375Z,10.93
2018-05-18T07:00:05.903Z,11.17
2018-05-18T07:02:33.519Z,10.90
2018-05-18T07:05:01.081Z,10.13
2018-05-18T07:07:28.623Z,11.80
2018-05-18T07:09:56.172Z,10.30
2018-05-18T07:12:24.502Z,10.30
2018-05-18T07:14:52.015Z,10.97
2018-05-18T07:17:19.742Z,12.23
2018-05-18T07:19:48.038Z,10.03
2018-05-18T07:22:15.768Z,10.40
2018-05-18T07:24:43.373Z,11.00
2018-05-18T07:27:10.898Z,11.43
2018-05-18T07:29:39.261Z,12.03
2018-05-18T07:32:06.804Z,12.27
2018-05-18T07:34:34.378Z,11.60
2018-05-18T07:37:01.954Z,10.37
2018-05-18T07:39:29.439Z,10.40
2018-05-18T07:41:57.794Z,10.60
2018-05-18T07:44:25.337Z,11.00
2018-05-18T07:46:53.858Z,10.03
2018-05-18T07:49:21.435Z,11.53
2018-05-18T07:51:48.997Z,10.67
2018-05-18T07:54:17.286Z,11.00
2018-05-18T07:56:44.808Z,11.50
2018-05-18T07:59:12.314Z,11.03
2018-05-18T08:01:39.851Z,10.30
2018-05-18T08:04:08.187Z,10.70
2018-05-18T08:06:35.719Z,11.43
2018-05-18T08:09:03.805Z,12.00
2018-05-18T08:11:31.351Z,11.97
2018-05-18T08:13:58.957Z,10.80
2018-05-18T08:16:26.526Z,10.43
2018-05-18T08:18:54.123Z,10.57
2018-05-18T08:21:21.643Z,11.37
2018-05-18T08:23:49.406Z,11.33
2018-05-18T08:26:16.924Z,11.07
2018-05-18T08:28:57.474Z,11.37
2018-05-18T08:31:24.995Z,13.10
2018-05-18T08:33:53.268Z,11.10
2018-05-18T08:36:20.790Z,11.33
2018-05-18T08:38:48.892Z,11.27
2018-05-18T08:41:16.419Z,11.60
2018-05-18T08:43:43.935Z,12.23
2018-05-18T08:46:12.239Z,10.73
2018-05-18T08:48:40.600Z,11.40
2018-05-18T08:51:08.140Z,11.77
2018-05-18T08:53:35.718Z,11.30
2018-05-18T08:56:04.007Z,13.07
2018-05-18T08:58:32.325Z,12.23
2018-05-18T09:01:00.598Z,12.60
2018-05-18T09:03:28.136Z,11.73
2018-05-18T09:05:55.654Z,11.83
2018-05-18T09:08:23.177Z,12.57
2018-05-18T09:10:50.756Z,12.37
2018-05-18T09:13:19.346Z,12.97
2018-05-18T09:15:46.911Z,11.70
2018-05-18T09:18:14.512Z,11.53
2018-05-18T09:20:42.051Z,12.23
2018-05-18T09:23:09.582Z,12.30
2018-05-18T09:25:37.878Z,12.20
2018-05-18T09:28:05.468Z,15.00
2018-05-18T09:30:33.775Z,13.47
2018-05-18T09:33:02.114Z,15.60
2018-05-18T09:35:29.638Z,12.83
2018-05-18T09:37:57.234Z,11.60
2018-05-18T09:40:24.808Z,12.87
2018-05-18T09:42:52.398Z,13.50
2018-05-18T09:45:19.916Z,12.90
2018-05-18T09:47:47.448Z,12.47
2018-05-18T09:50:15.021Z,12.87
2018-05-18T09:52:42.574Z,12.17
2018-05-18T09:55:10.344Z,11.60
2018-05-18T09:57:37.711Z,12.53
2018-05-18T10:00:06.070Z,12.10
2018-05-18T10:02:33.659Z,10.57
2018-05-18T10:05:01.242Z,12.17
2018-05-18T10:07:28.844Z,10.30
2018-05-18T10:09:56.408Z,11.57
2018-05-18T10:12:24.033Z,12.23
2018-05-18T10:14:51.553Z,11.53
2018-05-18T10:17:19.098Z,12.97
2018-05-18T10:19:47.387Z,11.70
2018-05-18T10:22:14.967Z,11.63
2018-05-18T10:24:42.507Z,14.20
2018-05-18T10:27:10.037Z,13.47
2018-05-18T10:29:37.802Z,12.90
2018-05-18T10:32:05.314Z,13.57
2018-05-18T10:34:32.880Z,13.30
2018-05-18T10:37:00.389Z,13.20
2018-05-18T10:39:27.917Z,14.13
2018-05-18T10:41:55.426Z,12.70
2018-05-18T10:44:22.957Z,12.50
2018-05-18T10:46:50.528Z,12.67
2018-05-18T10:49:18.225Z,12.47
2018-05-18T10:51:45.759Z,13.17
2018-05-18T10:54:13.342Z,12.30
2018-05-18T10:56:40.930Z,11.40
2018-05-18T10:59:11.383Z,12.30
2018-05-18T11:01:38.943Z,13.10
2018-05-18T11:04:06.947Z,13.73
2018-05-18T11:06:34.487Z,13.87
2018-05-18T11:09:02.778Z,13.20
2018-05-18T11:11:31.465Z,13.23
2018-05-18T11:13:59.058Z,12.13
2018-05-18T11:16:26.619Z,13.30
2018-05-18T11:18:54.195Z,13.50
2018-05-18T11:21:21.733Z,10.83
2018-05-18T11:23:49.307Z,11.20
2018-05-18T11:26:17.685Z,12.00
2018-05-18T11:28:45.199Z,12.30
2018-05-18T11:31:13.557Z,12.43
2018-05-18T11:33:41.107Z,11.90
2018-05-18T11:36:08.715Z,11.97
2018-05-18T11:38:36.436Z,12.10
2018-05-18T11:41:04.754Z,12.10
2018-05-18T11:43:33.110Z,12.00
2018-05-18T11:46:00.650Z,11.90
2018-05-18T11:48:28.215Z,13.10
2018-05-18T11:50:55.738Z,12.33
2018-05-18T11:53:23.267Z,13.17
2018-05-18T11:55:50.774Z,14.30
2018-05-18T11:58:19.038Z,11.27
2018-05-18T12:00:47.442Z,12.90
2018-05-18T12:03:14.945Z,11.17
2018-05-18T12:05:42.475Z,12.13
2018-05-18T12:08:09.986Z,11.83
2018-05-18T12:10:37.517Z,12.47
2018-05-18T12:13:05.806Z,11.90
2018-05-18T12:15:34.095Z,11.20
2018-05-18T12:18:02.411Z,12.60
2018-05-18T12:20:30.700Z,11.33
2018-05-18T12:22:58.564Z,10.90
2018-05-18T12:25:26.066Z,10.30
2018-05-18T12:27:53.604Z,12.27
2018-05-18T12:30:21.106Z,10.80
2018-05-18T12:32:48.620Z,11.63
2018-05-18T12:35:16.156Z,11.00
2018-05-18T12:37:43.655Z,10.80
2018-05-18T12:40:12.134Z,11.27
2018-05-18T12:42:39.654Z,9.47
2018-05-18T12:45:07.183Z,10.47
2018-05-18T12:47:35.466Z,11.23
2018-05-18T12:50:02.971Z,9.30
2018-05-18T12:52:30.499Z,9.90
2018-05-18T12:54:58.004Z,9.37
2018-05-18T12:57:25.535Z,9.60
2018-05-18T12:59:53.037Z,9.10
2018-05-18T13:02:20.562Z,9.47
2018-05-18T13:04:48.086Z,11.27
2018-05-18T13:07:15.591Z,10.10
2018-05-18T13:09:43.110Z,10.10
2018-05-18T13:12:10.611Z,10.60
2018-05-18T13:14:38.201Z,10.43
2018-05-18T13:17:05.697Z,10.87
2018-05-18T13:19:33.215Z,11.00
2018-05-18T13:22:00.734Z,10.00
2018-05-18T13:24:29.055Z,10.10
2018-05-18T13:26:56.568Z,11.90
2018-05-18T13:29:24.092Z,11.30
2018-05-18T13:31:51.642Z,10.43
2018-05-18T13:34:19.201Z,10.27
2018-05-18T13:36:46.721Z,9.33
2018-05-18T13:39:14.249Z,11.00
2018-05-18T13:41:41.777Z,12.23
2018-05-18T13:44:09.290Z,9.90
2018-05-18T13:46:36.827Z,9.27
2018-05-18T13:49:04.351Z,8.73
2018-05-18T13:51:31.927Z,8.67
2018-05-18T13:53:59.486Z,9.23
2018-05-18T13:56:27.003Z,9.93
2018-05-18T13:58:54.572Z,9.23
2018-05-18T14:01:22.100Z,8.00
2018-05-18T14:03:50.846Z,9.87
2018-05-18T14:06:18.374Z,9.80
2018-05-18T14:08:46.649Z,11.53
2018-05-18T14:11:14.217Z,12.83
2018-05-18T14:13:41.727Z,10.20
2018-05-18T14:16:09.291Z,10.30
2018-05-18T14:18:36.816Z,10.00
2018-05-18T14:21:05.106Z,9.70
2018-05-18T14:23:33.395Z,10.50
2018-05-18T14:26:00.922Z,9.73
2018-05-18T14:28:28.433Z,10.20
2018-05-18T14:30:56.183Z,10.13
2018-05-18T14:33:23.702Z,9.80
2018-05-18T14:35:51.249Z,9.40
2018-05-18T14:38:18.775Z,9.90
2018-05-18T14:40:46.287Z,9.63
2018-05-18T14:43:13.961Z,10.23
2018-05-18T14:45:41.365Z,8.83
2018-05-18T14:48:09.655Z,8.60
2018-05-18T14:50:37.161Z,9.00
2018-05-18T14:53:05.451Z,9.40
2018-05-18T14:55:33.722Z,8.23
2018-05-18T14:58:01.600Z,7.83
2018-05-18T15:00:29.171Z,8.50
2018-05-18T15:02:56.682Z,9.37
2018-05-18T15:05:24.572Z,8.80
2018-05-18T15:07:52.143Z,9.37
2018-05-18T15:10:20.164Z,9.57
2018-05-18T15:12:47.682Z,10.00
2018-05-18T15:15:15.222Z,10.60
2018-05-18T15:17:42.832Z,9.13
2018-05-18T15:20:11.122Z,8.77
2018-05-18T15:22:38.641Z,9.93
2018-05-18T15:25:06.924Z,8.70
2018-05-18T15:27:35.256Z,10.90
2018-05-18T15:30:02.759Z,9.27
2018-05-18T15:32:30.278Z,9.60
2018-05-18T15:34:58.580Z,8.93
2018-05-18T15:37:26.927Z,8.00
2018-05-18T15:39:54.383Z,8.10
2018-05-18T15:42:21.898Z,9.00
2018-05-18T15:44:49.528Z,9.90
2018-05-18T15:47:17.043Z,9.50
2018-05-18T15:49:44.574Z,9.30
2018-05-18T15:52:12.116Z,9.67
2018-05-18T15:54:39.623Z,9.63
2018-05-18T15:57:07.158Z,9.90
2018-05-18T15:59:44.507Z,8.87
2018-05-18T16:02:12.027Z,9.80
2018-05-18T16:04:39.533Z,8.93
2018-05-18T16:07:07.803Z,8.63
2018-05-18T16:09:35.344Z,9.43
2018-05-18T16:12:02.854Z,8.83
2018-05-18T16:14:30.389Z,8.87
2018-05-18T16:16:57.900Z,7.73
2018-05-18T16:19:25.427Z,8.70
2018-05-18T16:21:52.961Z,8.50
2018-05-18T16:24:20.594Z,8.40
2018-05-18T16:26:48.113Z,8.57
2018-05-18T16:29:15.632Z,8.57
2018-05-18T16:31:43.226Z,9.77
2018-05-18T16:34:10.962Z,9.00
2018-05-18T16:36:38.527Z,9.50
2018-05-18T16:39:06.051Z,8.97
2018-05-18T16:41:33.582Z,9.70
2018-05-18T16:44:01.106Z,10.60
2018-05-18T16:46:28.628Z,9.27
2018-05-18T16:48:56.134Z,8.87
2018-05-18T16:51:23.641Z,10.20
2018-05-18T16:53:51.968Z,9.10
2018-05-18T16:56:19.486Z,8.90
2018-05-18T16:58:47.015Z,10.23
2018-05-18T17:01:14.599Z,9.50
2018-05-18T17:03:42.888Z,9.63
2018-05-18T17:06:11.165Z,10.73
2018-05-18T17:08:38.679Z,9.87
2018-05-18T17:11:06.967Z,10.63
2018-05-18T17:13:34.487Z,10.33
2018-05-18T17:16:02.014Z,10.10
2018-05-18T17:18:29.528Z,10.20
2018-05-18T17:20:57.824Z,10.83
2018-05-18T17:23:26.122Z,9.90
2018-05-18T17:25:54.478Z,10.37
2018-05-18T17:28:21.940Z,9.37
2018-05-18T17:30:49.447Z,9.67
2018-05-18T17:33:16.992Z,9.00
2018-05-18T17:35:44.493Z,9.60
2018-05-18T17:38:12.024Z,8.80
2018-05-18T17:40:39.542Z,10.20
2018-05-18T17:43:07.077Z,9.83
2018-05-18T17:45:34.598Z,9.87
2018-05-18T17:48:02.883Z,10.00
2018-05-18T17:50:30.437Z,10.60
2018-05-18T17:52:57.937Z,8.90
2018-05-18T17:55:25.442Z,9.93
2018-05-18T17:57:53.734Z,8.53
2018-05-18T18:00:22.003Z,9.37
2018-05-18T18:02:49.580Z,9.23
2018-05-18T18:05:17.299Z,9.33
2018-05-18T18:07:44.844Z,9.50
2018-05-18T18:10:12.342Z,10.63
2018-05-18T18:12:39.880Z,9.67
2018-05-18T18:15:07.391Z,10.77
2018-05-18T18:17:34.944Z,9.30
2018-05-18T18:20:02.455Z,9.83
2018-05-18T18:22:29.999Z,10.50
2018-05-18T18:24:57.526Z,9.83
2018-05-18T18:27:25.803Z,9.50
2018-05-18T18:29:54.131Z,9.67
2018-05-18T18:32:21.642Z,10.63
2018-05-18T18:34:49.948Z,11.07
2018-05-18T18:37:17.450Z,9.10
2018-05-18T18:39:45.086Z,10.10
2018-05-18T18:42:12.531Z,10.50
2018-05-18T18:44:40.047Z,11.30
2018-05-18T18:47:07.589Z,10.50
2018-05-18T18:49:35.118Z,10.33
2018-05-18T18:52:02.745Z,10.30
2018-05-18T18:54:30.171Z,9.50
2018-05-18T18:56:57.709Z,9.77
2018-05-18T18:59:25.418Z,10.27
2018-05-18T19:01:52.955Z,9.43
2018-05-18T19:04:20.607Z,10.23
2018-05-18T19:06:48.173Z,9.80
2018-05-18T19:09:15.693Z,9.60
2018-05-18T19:11:43.197Z,9.97
2018-05-18T19:14:10.731Z,10.53
2018-05-18T19:16:38.253Z,11.10
2018-05-18T19:19:05.802Z,10.20
2018-05-18T19:21:34.085Z,10.40
2018-05-18T19:24:03.014Z,9.63
2018-05-18T19:26:30.554Z,12.17
2018-05-18T19:28:58.080Z,10.60
2018-05-18T19:31:25.606Z,11.43
2018-05-18T19:33:53.129Z,12.13
2018-05-18T19:36:20.657Z,11.53
2018-05-18T19:38:48.179Z,11.27
2018-05-18T19:41:16.458Z,11.50
2018-05-18T19:43:44.018Z,12.53
2018-05-18T19:46:11.532Z,12.80
2018-05-18T19:48:39.838Z,12.50
2018-05-18T19:51:07.347Z,12.87
2018-05-18T19:53:34.922Z,11.40
2018-05-18T19:56:03.423Z,12.07
2018-05-18T19:58:30.987Z,12.70
2018-05-18T20:00:58.763Z,13.07
2018-05-18T20:03:26.356Z,13.13
2018-05-18T20:05:53.829Z,12.00
2018-05-18T20:08:21.345Z,12.80
2018-05-18T20:10:49.103Z,13.20
2018-05-18T20:15:58.710Z,12.43
2018-05-18T20:18:27.107Z,13.20
2018-05-18T20:20:54.632Z,12.90
2018-05-18T20:23:22.208Z,13.47
2018-05-18T20:25:49.719Z,13.13
2018-05-18T20:28:17.987Z,13.80
2018-05-18T20:30:46.281Z,13.50
2018-05-18T20:33:13.807Z,13.93
2018-05-18T20:35:41.329Z,14.47
2018-05-18T20:38:08.889Z,14.30
2018-05-18T20:40:36.396Z,13.40
2018-05-18T20:43:04.661Z,15.10
2018-05-18T20:45:32.191Z,14.60
2018-05-18T20:47:59.707Z,13.93
2018-05-18T20:50:27.979Z,13.17
2018-05-18T20:52:55.514Z,15.10
2018-05-18T20:55:23.005Z,16.87
2018-05-18T20:57:50.549Z,14.38
2018-05-18T21:00:18.818Z,15.77
2018-05-18T21:02:47.119Z,15.77
2018-05-18T21:05:15.379Z,16.20
2018-05-18T21:07:43.666Z,14.57
2018-05-18T21:10:11.961Z,16.67
2018-05-18T21:12:39.476Z,15.33
2018-05-18T21:15:07.026Z,15.70
2018-05-18T21:17:34.542Z,14.20
2018-05-18T21:20:02.078Z,16.15
2018-05-18T21:22:30.344Z,15.57
2018-05-18T21:24:57.908Z,16.47
2018-05-18T21:27:26.212Z,16.08
2018-05-18T21:29:53.721Z,15.38
2018-05-18T21:32:21.238Z,16.10
2018-05-18T21:34:48.756Z,14.57
2018-05-18T21:37:16.286Z,14.87
2018-05-18T21:39:43.802Z,15.00
2018-05-18T21:42:11.335Z,14.67
2018-05-18T21:44:38.852Z,16.00
2018-05-18T21:47:06.371Z,15.10
2018-05-18T21:49:34.659Z,16.33
2018-05-18T21:52:02.190Z,13.60
2018-05-18T21:54:29.717Z,14.43
2018-05-18T21:56:57.259Z,15.03
2018-05-18T21:59:24.785Z,15.33
2018-05-18T22:01:53.093Z,14.55
2018-05-18T22:04:20.646Z,14.18
2018-05-18T22:06:48.186Z,15.33
2018-05-18T22:09:16.462Z,15.80
2018-05-18T22:11:44.745Z,12.97
2018-05-18T22:14:13.083Z,14.40
2018-05-18T22:16:41.297Z,16.00
2018-05-18T22:19:09.573Z,16.08
2018-05-18T22:21:37.866Z,15.18
2018-05-18T22:24:05.417Z,15.35
2018-05-18T22:26:32.928Z,15.97
2018-05-18T22:29:00.457Z,16.87
2018-05-18T22:31:27.966Z,14.53
2018-05-18T22:33:55.518Z,14.90
2018-05-18T22:36:23.026Z,14.37
2018-05-18T22:38:51.298Z,16.17
2018-05-18T22:41:18.840Z,15.57
2018-05-18T22:43:47.198Z,16.87
2018-05-18T22:46:15.421Z,15.38
2018-05-18T22:48:42.941Z,14.43
2018-05-18T22:51:10.464Z,14.73
2018-05-18T22:53:37.969Z,14.43
2018-05-18T22:56:05.485Z,14.68
2018-05-18T22:58:33.025Z,15.32
2018-05-18T23:01:00.543Z,16.30
2018-05-18T23:03:28.069Z,15.83
2018-05-18T23:05:55.584Z,14.00
2018-05-18T23:08:23.113Z,15.05
2018-05-18T23:10:50.643Z,14.95
2018-05-18T23:13:18.155Z,16.10
2018-05-18T23:15:46.470Z,16.05
2018-05-18T23:18:13.997Z,13.88
2018-05-18T23:20:42.275Z,14.00
2018-05-18T23:23:09.806Z,14.70
2018-05-18T23:25:37.380Z,15.52
2018-05-18T23:28:04.875Z,14.83
2018-05-18T23:30:32.382Z,15.93
2018-05-18T23:32:59.922Z,15.13
2018-05-18T23:35:27.430Z,15.70
2018-05-18T23:37:55.717Z,15.50
2018-05-18T23:40:23.290Z,15.65
2018-05-18T23:42:50.806Z,15.43
2018-05-18T23:45:18.359Z,15.45
2018-05-18T23:47:45.870Z,14.60
2018-05-18T23:50:13.388Z,15.65
2018-05-18T23:52:40.915Z,16.33
2018-05-18T23:55:08.438Z,14.82
2018-05-18T23:57:36.744Z,15.20
